Time;durP1;ratioP1;P1;durP2;ratioP2;P2;SDS_P1;SDS_P2;PMS_P1;PMS_P2;Temp;Humidity;BMP_temperature;BMP_pressure;BME280_temperature;BME280_humidity;BME280_pressure;Samples;Min_cycle;Max_cycle;Signal;HPM_P1;HPM_P2
2022/04/07 00:01:06;;;;;;;8.27;2.45;;;;;;;7.61;100.00;99093.25;5345401;27;20066;-67
2022/04/07 00:03:37;;;;;;;7.30;2.67;;;;;;;7.59;100.00;99104.03;5345762;27;20147;-67
2022/04/07 00:06:12;;;;;;;6.93;2.80;;;;;;;7.58;100.00;99091.72;5344664;27;20373;-67
2022/04/07 00:08:43;;;;;;;5.38;2.42;;;;;;;7.57;100.00;99086.56;5348768;27;20034;-67
2022/04/07 00:11:14;;;;;;;7.95;2.40;;;;;;;7.55;100.00;99085.84;5344706;27;20026;-67
2022/04/07 00:13:45;;;;;;;6.95;2.28;;;;;;;7.51;100.00;99073.84;5343200;27;20042;-67
2022/04/07 00:16:17;;;;;;;9.45;2.42;;;;;;;7.49;100.00;99075.81;5324501;27;20027;-67
2022/04/07 00:18:48;;;;;;;9.02;2.53;;;;;;;7.48;100.00;99072.34;5342403;27;20571;-67
2022/04/07 00:21:34;;;;;;;10.15;2.45;;;;;;;7.48;100.00;99077.63;5324673;27;20126;-67
2022/04/07 00:24:06;;;;;;;7.10;2.20;;;;;;;7.48;100.00;99069.69;5343524;27;20130;-67
2022/04/07 00:26:38;;;;;;;7.15;2.40;;;;;;;7.51;100.00;99068.56;5346525;27;20527;-67
2022/04/07 00:29:09;;;;;;;8.23;2.30;;;;;;;7.53;100.00;99055.97;5346460;27;20292;-67
2022/04/07 00:31:40;;;;;;;8.88;2.28;;;;;;;7.53;100.00;99040.88;5346287;27;20138;-67
2022/04/07 00:34:12;;;;;;;6.93;2.45;;;;;;;7.54;100.00;99047.03;5350705;27;20030;-67
2022/04/07 00:36:43;;;;;;;6.32;2.17;;;;;;;7.56;100.00;99030.00;5347832;27;20030;-67
2022/04/07 00:39:14;;;;;;;8.25;2.53;;;;;;;7.55;100.00;99023.00;5351451;27;20057;-67
2022/04/07 00:41:46;;;;;;;9.07;2.67;;;;;;;7.54;100.00;99021.34;5347347;27;20087;-67
2022/04/07 00:44:18;;;;;;;11.27;3.45;;;;;;;7.58;100.00;99011.28;5350310;27;20031;-67
2022/04/07 00:46:49;;;;;;;11.57;2.97;;;;;;;7.58;100.00;99014.75;5348189;27;20097;-67
2022/04/07 00:49:20;;;;;;;7.75;3.08;;;;;;;7.57;100.00;98994.50;5350382;27;20518;-67
2022/04/07 00:51:53;;;;;;;13.15;3.40;;;;;;;7.58;100.00;98995.34;5348816;27;20034;-67
2022/04/07 00:54:25;;;;;;;11.60;3.50;;;;;;;7.59;100.00;98991.69;5351714;27;20496;-67
2022/04/07 00:56:59;;;;;;;9.77;3.20;;;;;;;7.59;100.00;98984.59;5350695;27;20030;-67
2022/04/07 00:59:33;;;;;;;8.80;3.40;;;;;;;7.61;100.00;98989.75;5355880;27;20073;-67
2022/04/07 01:02:06;;;;;;;11.55;3.65;;;;;;;7.61;100.00;98989.75;5351015;27;20053;-67
2022/04/07 01:04:38;;;;;;;10.15;3.70;;;;;;;7.60;100.00;98986.25;5348595;27;20042;-66
2022/04/07 01:07:09;;;;;;;9.88;3.92;;;;;;;7.62;100.00;98981.63;5346525;27;20027;-67
2022/04/07 01:09:41;;;;;;;9.85;3.28;;;;;;;7.59;100.00;98978.44;5348971;27;20476;-67
2022/04/07 01:12:12;;;;;;;9.63;3.28;;;;;;;7.59;100.00;98960.72;5347552;27;20037;-67
2022/04/07 01:14:59;;;;;;;6.65;3.35;;;;;;;7.60;100.00;98964.19;5345913;27;20050;-67
2022/04/07 01:17:30;;;;;;;10.93;3.83;;;;;;;7.60;100.00;98972.97;5351169;27;20555;-67
2022/04/07 01:20:06;;;;;;;13.60;3.40;;;;;;;7.60;100.00;98966.84;5350824;27;20039;-67
2022/04/07 01:22:40;;;;;;;14.27;3.78;;;;;;;7.61;100.00;98952.59;5349802;27;20113;-67
2022/04/07 01:25:13;;;;;;;15.57;4.10;;;;;;;7.57;100.00;98946.72;5346586;27;20076;-67
2022/04/07 01:27:49;;;;;;;8.88;3.13;;;;;;;7.56;100.00;98942.41;5347980;27;20033;-67
2022/04/07 01:30:20;;;;;;;8.25;3.25;;;;;;;7.57;100.00;98935.28;5347765;27;20554;-67
2022/04/07 01:33:01;;;;;;;12.63;3.30;;;;;;;7.57;100.00;98930.81;5343141;27;20027;-67
2022/04/07 01:35:33;;;;;;;10.70;3.65;;;;;;;7.56;100.00;98923.84;5348036;27;20027;-67
2022/04/07 01:38:04;;;;;;;11.40;3.30;;;;;;;7.56;100.00;98910.56;5343428;27;20075;-67
2022/04/07 01:40:36;;;;;;;12.18;3.50;;;;;;;7.56;100.00;98918.53;5343022;27;20042;-67
2022/04/07 01:43:10;;;;;;;12.95;3.65;;;;;;;7.54;100.00;98907.22;5339491;27;20504;-67
2022/04/07 01:45:42;;;;;;;11.07;3.20;;;;;;;7.56;100.00;98902.59;5344220;27;20029;-67
2022/04/07 01:48:15;;;;;;;6.38;3.08;;;;;;;7.54;100.00;98901.91;5348219;27;20575;-67
2022/04/07 01:50:50;;;;;;;9.07;3.28;;;;;;;7.56;100.00;98885.84;5348783;27;20034;-67
2022/04/07 01:53:23;;;;;;;16.30;4.03;;;;;;;7.55;100.00;98892.13;5344298;27;20031;-67
2022/04/07 01:55:54;;;;;;;10.23;3.50;;;;;;;7.60;100.00;98877.44;5346340;27;20026;-67
2022/04/07 01:58:26;;;;;;;10.38;3.03;;;;;;;7.64;100.00;98880.63;5348259;27;20091;-67
2022/04/07 02:00:57;;;;;;;10.32;3.40;;;;;;;7.65;100.00;98880.50;5342799;27;20027;-67
2022/04/07 02:03:29;;;;;;;9.25;3.53;;;;;;;7.66;100.00;98873.38;5344228;27;20033;-67
2022/04/07 02:06:15;;;;;;;12.25;4.20;;;;;;;7.64;100.00;98881.47;5342382;27;20072;-67
2022/04/07 02:08:47;;;;;;;10.95;3.53;;;;;;;7.68;100.00;98873.22;5348884;27;20022;-67
2022/04/07 02:11:18;;;;;;;11.90;3.72;;;;;;;7.68;100.00;98873.22;5343740;27;20042;-67
2022/04/07 02:13:49;;;;;;;8.30;3.42;;;;;;;7.66;100.00;98868.06;5347931;27;20047;-67
2022/04/07 02:16:22;;;;;;;14.00;3.15;;;;;;;7.63;100.00;98871.84;5341376;27;20139;-67
2022/04/07 02:18:53;;;;;;;13.45;4.05;;;;;;;7.62;100.00;98864.84;5346525;27;20377;-67
2022/04/07 02:21:25;;;;;;;12.50;2.58;;;;;;;7.61;100.00;98847.28;5346105;27;20030;-67
2022/04/07 02:23:56;;;;;;;12.35;3.03;;;;;;;7.64;100.00;98840.81;5344866;27;20075;-68
2022/04/07 02:26:30;;;;;;;11.07;3.05;;;;;;;7.66;100.00;98845.00;5339994;27;20088;-67
2022/04/07 02:29:01;;;;;;;12.95;2.92;;;;;;;7.69;100.00;98848.34;5344256;27;20579;-67
2022/04/07 02:31:33;;;;;;;9.07;2.50;;;;;;;7.72;100.00;98835.59;5344480;27;20022;-67
2022/04/07 02:34:04;;;;;;;9.95;2.92;;;;;;;7.72;100.00;98850.72;5344524;27;20031;-67
2022/04/07 02:36:35;;;;;;;11.23;2.97;;;;;;;7.74;100.00;98840.78;5344475;27;20691;-68
2022/04/07 02:39:06;;;;;;;9.75;2.67;;;;;;;7.76;100.00;98838.81;5322468;27;20027;-67
2022/04/07 02:41:38;;;;;;;11.40;3.75;;;;;;;7.72;100.00;98830.28;5344906;27;20112;-67
2022/04/07 02:44:09;;;;;;;11.88;2.80;;;;;;;7.75;100.00;98834.50;5344078;27;20019;-67
2022/04/07 02:46:40;;;;;;;10.93;2.70;;;;;;;7.74;100.00;98825.66;5340378;27;20102;-68
2022/04/07 02:49:12;;;;;;;11.02;3.10;;;;;;;7.73;100.00;98820.50;5344351;27;20471;-68
2022/04/07 02:51:45;;;;;;;7.30;2.80;;;;;;;7.73;100.00;98804.56;5339686;27;20062;-67
2022/04/07 02:54:17;;;;;;;11.50;2.70;;;;;;;7.73;100.00;98796.63;5342593;27;20114;-68
2022/04/07 02:56:48;;;;;;;10.98;2.80;;;;;;;7.70;100.00;98792.44;5341895;27;20415;-68
2022/04/07 02:59:19;;;;;;;8.50;3.15;;;;;;;7.68;100.00;98786.47;5347021;27;20042;-68
2022/04/07 03:01:53;;;;;;;14.13;2.90;;;;;;;7.74;100.00;98780.53;5338733;27;20125;-68
2022/04/07 03:04:24;;;;;;;12.60;3.13;;;;;;;7.80;100.00;98771.97;5337905;27;20030;-68
2022/04/07 03:06:55;;;;;;;9.55;2.95;;;;;;;7.81;100.00;98767.53;5339109;27;20027;-68
2022/04/07 03:09:27;;;;;;;11.82;3.17;;;;;;;7.83;100.00;98760.25;5338327;27;20397;-68
2022/04/07 03:11:58;;;;;;;9.98;3.03;;;;;;;7.89;100.00;98754.31;5339298;27;20573;-68
2022/04/07 03:14:29;;;;;;;10.95;2.95;;;;;;;7.90;100.00;98749.81;5337828;27;20504;-68
2022/04/07 03:17:01;;;;;;;8.40;2.92;;;;;;;7.94;100.00;98749.41;5340003;27;20039;-68
2022/04/07 03:19:34;;;;;;;9.18;2.78;;;;;;;7.95;100.00;98742.25;5341519;27;20804;-67
2022/04/07 03:22:05;;;;;;;14.23;3.10;;;;;;;7.93;100.00;98726.47;5339323;27;20065;-68
2022/04/07 03:24:36;;;;;;;11.68;3.25;;;;;;;7.94;100.00;98725.50;5335611;27;20188;-67
2022/04/07 03:27:08;;;;;;;10.30;2.72;;;;;;;7.95;100.00;98707.72;5337439;27;20022;-67
2022/04/07 03:29:40;;;;;;;13.00;2.80;;;;;;;7.96;100.00;98723.53;5335119;27;20061;-67
2022/04/07 03:32:11;;;;;;;10.45;2.85;;;;;;;7.99;100.00;98717.06;5338580;27;20030;-67
2022/04/07 03:34:42;;;;;;;10.65;3.05;;;;;;;7.98;100.00;98710.91;5340511;27;20441;-67
2022/04/07 03:37:14;;;;;;;9.75;3.00;;;;;;;7.97;100.00;98708.41;5337695;27;20038;-68
2022/04/07 03:39:46;;;;;;;11.93;2.95;;;;;;;8.00;100.00;98708.13;5340958;27;20518;-68
2022/04/07 03:42:17;;;;;;;9.45;2.50;;;;;;;7.99;100.00;98701.94;5344766;27;20037;-67
2022/04/07 03:44:48;;;;;;;14.57;3.28;;;;;;;8.03;100.00;98695.38;5341408;27;20019;-67
2022/04/07 03:47:20;;;;;;;9.30;3.00;;;;;;;8.03;100.00;98679.44;5338706;27;20027;-67
2022/04/07 03:49:51;;;;;;;10.82;2.90;;;;;;;8.06;100.00;98686.25;5339045;27;21840;-67
2022/04/07 03:52:22;;;;;;;9.70;2.70;;;;;;;8.10;100.00;98692.09;5340053;27;20019;-67
2022/04/07 03:54:54;;;;;;;13.75;3.22;;;;;;;8.11;100.00;98677.81;5342904;27;20023;-67
2022/04/07 03:57:25;;;;;;;10.50;2.53;;;;;;;8.11;100.00;98673.34;5335612;27;20106;-67
2022/04/07 03:59:56;;;;;;;8.50;2.92;;;;;;;8.13;100.00;98665.19;5339673;27;20031;-67
2022/04/07 04:02:28;;;;;;;7.20;2.50;;;;;;;8.15;100.00;98653.44;5337295;27;20568;-67
2022/04/07 04:04:59;;;;;;;14.43;2.45;;;;;;;8.11;100.00;98637.97;5341781;27;20461;-67
2022/04/07 04:07:30;;;;;;;6.10;2.60;;;;;;;8.10;100.00;98623.84;5342429;27;20440;-67
2022/04/07 04:10:02;;;;;;;9.95;2.63;;;;;;;8.12;100.00;98637.00;5343734;27;20087;-67
2022/04/07 04:12:34;;;;;;;9.93;2.63;;;;;;;8.09;100.00;98619.53;5346484;27;20031;-67
2022/04/07 04:15:05;;;;;;;8.32;2.30;;;;;;;8.10;100.00;98609.75;5346472;27;20496;-67
2022/04/07 04:17:37;;;;;;;8.40;2.47;;;;;;;8.11;100.00;98592.81;5346791;27;20090;-67
2022/04/07 04:20:08;;;;;;;8.07;2.38;;;;;;;8.11;100.00;98576.88;5343732;27;20031;-67
2022/04/07 04:22:40;;;;;;;11.05;2.55;;;;;;;8.10;100.00;98561.94;5341144;27;20027;-67
2022/04/07 04:25:11;;;;;;;7.93;2.08;;;;;;;8.09;100.00;98557.63;5319007;27;20030;-67
2022/04/07 04:27:42;;;;;;;7.05;2.38;;;;;;;8.07;100.00;98546.31;5342949;27;20503;-67
2022/04/07 04:30:14;;;;;;;7.90;2.30;;;;;;;8.10;100.00;98546.84;5337553;27;20117;-67
2022/04/07 04:32:45;;;;;;;7.95;2.10;;;;;;;8.12;100.00;98546.69;5342996;27;20027;-67
2022/04/07 04:35:16;;;;;;;7.95;2.00;;;;;;;8.20;100.00;98546.72;5341395;27;20031;-67
2022/04/07 04:37:47;;;;;;;5.20;1.77;;;;;;;8.20;100.00;98546.72;5343164;27;20027;-67
2022/04/07 04:40:19;;;;;;;5.15;1.70;;;;;;;8.21;100.00;98535.13;5339873;27;20100;-67
2022/04/07 04:42:50;;;;;;;4.65;1.83;;;;;;;8.22;100.00;98534.09;5342941;27;20494;-67
2022/04/07 04:45:21;;;;;;;6.13;1.65;;;;;;;8.24;100.00;98529.47;5339812;27;20098;-67
2022/04/07 04:47:53;;;;;;;6.85;1.88;;;;;;;8.23;100.00;98544.59;5344748;27;20118;-67
2022/04/07 04:50:25;;;;;;;5.75;1.75;;;;;;;8.20;100.00;98528.94;5341001;27;20027;-67
2022/04/07 04:52:56;;;;;;;6.22;1.70;;;;;;;8.20;100.00;98512.19;5338863;27;20023;-67
2022/04/07 04:55:27;;;;;;;8.15;1.83;;;;;;;8.20;100.00;98504.22;5341447;27;20031;-67
2022/04/07 04:57:58;;;;;;;6.43;1.95;;;;;;;8.17;100.00;98504.53;5341583;27;20106;-67
2022/04/07 05:00:30;;;;;;;6.32;2.00;;;;;;;8.16;100.00;98498.38;5348174;27;20530;-67
2022/04/07 05:03:01;;;;;;;4.40;1.67;;;;;;;8.13;100.00;98473.97;5348914;27;20039;-67
2022/04/07 05:05:32;;;;;;;5.07;1.60;;;;;;;8.10;100.00;98469.00;5348112;27;20484;-67
2022/04/07 05:08:04;;;;;;;4.82;1.50;;;;;;;8.10;100.00;98461.03;5343585;27;20477;-67
2022/04/07 05:10:36;;;;;;;4.80;1.45;;;;;;;8.09;100.00;98451.38;5347153;27;20032;-67
2022/04/07 05:13:08;;;;;;;5.15;1.50;;;;;;;8.11;100.00;98458.22;5350301;27;20087;-67
2022/04/07 05:15:39;;;;;;;4.57;1.80;;;;;;;8.11;100.00;98452.06;5344421;27;20035;-67
2022/04/07 05:18:11;;;;;;;4.20;1.67;;;;;;;8.15;100.00;98456.03;5348450;27;20125;-67
2022/04/07 05:20:42;;;;;;;6.93;1.55;;;;;;;8.13;100.00;98442.94;5345674;27;20035;-67
2022/04/07 05:23:13;;;;;;;4.60;1.55;;;;;;;8.17;100.00;98446.09;5347708;27;20126;-68
2022/04/07 05:25:45;;;;;;;4.60;1.63;;;;;;;8.12;100.00;98438.63;5347721;27;20019;-68
2022/04/07 05:28:16;;;;;;;4.88;1.80;;;;;;;8.13;100.00;98420.84;5349099;27;20044;-67
2022/04/07 05:30:47;;;;;;;5.07;2.00;;;;;;;8.10;100.00;98418.53;5346072;27;20463;-67
2022/04/07 05:33:19;;;;;;;5.88;2.20;;;;;;;8.08;100.00;98409.91;5346219;27;20038;-67
2022/04/07 05:35:51;;;;;;;5.65;2.10;;;;;;;8.09;100.00;98406.22;5347142;27;20035;-67
2022/04/07 05:38:22;;;;;;;4.57;2.35;;;;;;;8.06;100.00;98399.44;5347041;27;20031;-67
2022/04/07 05:40:53;;;;;;;7.22;2.63;;;;;;;8.01;100.00;98393.75;5349052;27;20041;-67
2022/04/07 05:43:25;;;;;;;7.10;3.10;;;;;;;7.95;100.00;98376.66;5347000;27;20031;-67
2022/04/07 05:45:56;;;;;;;8.32;2.97;;;;;;;7.94;100.00;98375.00;5344453;27;20124;-67
2022/04/07 05:48:27;;;;;;;5.70;3.13;;;;;;;7.93;100.00;98370.69;5345862;27;20031;-67
2022/04/07 05:50:59;;;;;;;8.98;3.45;;;;;;;7.91;100.00;98356.72;5349346;27;20030;-67
2022/04/07 05:53:31;;;;;;;8.38;3.47;;;;;;;7.91;100.00;98347.94;5349483;27;20027;-67
2022/04/07 05:56:02;;;;;;;8.05;3.78;;;;;;;7.90;100.00;98338.31;5346792;27;20044;-67
2022/04/07 05:58:33;;;;;;;8.05;3.60;;;;;;;7.84;100.00;98329.16;5350246;27;20484;-67
2022/04/07 06:01:04;;;;;;;8.27;3.85;;;;;;;7.83;100.00;98319.56;5346322;27;20030;-67
2022/04/07 06:03:36;;;;;;;9.82;4.13;;;;;;;7.88;100.00;98327.88;5347773;27;20113;-67
2022/04/07 06:06:07;;;;;;;13.20;4.40;;;;;;;7.81;100.00;98310.94;5345170;27;20023;-67
2022/04/07 06:08:39;;;;;;;11.43;4.50;;;;;;;7.79;100.00;98308.44;5340277;27;20030;-67
2022/04/07 06:11:10;;;;;;;10.77;4.47;;;;;;;7.77;100.00;98301.63;5346295;27;20777;-68
2022/04/07 06:13:42;;;;;;;10.05;4.15;;;;;;;7.75;100.00;98291.16;5345279;27;20105;-67
2022/04/07 06:16:14;;;;;;;12.15;4.70;;;;;;;7.73;100.00;98290.50;5346307;27;20411;-68
2022/04/07 06:18:45;;;;;;;10.20;4.50;;;;;;;7.73;100.00;98281.69;5347876;27;20030;-68
2022/04/07 06:21:17;;;;;;;10.80;4.30;;;;;;;7.73;100.00;98281.69;5346508;27;20041;-68
2022/04/07 06:23:48;;;;;;;11.98;4.55;;;;;;;7.75;100.00;98277.91;5349491;27;20026;-68
2022/04/07 06:26:20;;;;;;;10.57;3.70;;;;;;;7.71;100.00;98271.25;5345089;27;20042;-67
2022/04/07 06:28:51;;;;;;;11.63;4.18;;;;;;;7.75;100.00;98253.19;5341613;27;20035;-67
2022/04/07 06:31:23;;;;;;;10.48;3.65;;;;;;;7.78;100.00;98260.81;5342504;27;20472;-67
2022/04/07 06:33:54;;;;;;;10.00;3.90;;;;;;;7.80;100.00;98249.03;5347790;27;20030;-67
2022/04/07 06:36:26;;;;;;;12.15;4.03;;;;;;;7.78;100.00;98237.75;5343746;27;20381;-67
2022/04/07 06:38:57;;;;;;;11.20;3.55;;;;;;;7.73;100.00;98218.84;5345231;27;20479;-68
2022/04/07 06:41:28;;;;;;;9.90;3.47;;;;;;;7.77;100.00;98225.47;5347941;27;21338;-68
2022/04/07 06:43:59;;;;;;;8.23;3.05;;;;;;;7.73;100.00;98216.19;5345103;27;20023;-68
2022/04/07 06:46:32;;;;;;;9.05;2.97;;;;;;;7.73;100.00;98202.91;5347792;27;20063;-68
2022/04/07 06:49:04;;;;;;;11.23;2.85;;;;;;;7.72;100.00;98193.28;5346875;27;20023;-68
2022/04/07 06:51:35;;;;;;;9.68;2.95;;;;;;;7.80;100.00;98185.31;5345557;27;20061;-68
2022/04/07 06:54:06;;;;;;;8.45;2.80;;;;;;;7.80;100.00;98190.63;5348305;27;20039;-67
2022/04/07 06:56:37;;;;;;;10.68;2.90;;;;;;;7.80;100.00;98172.03;5344882;27;20031;-67
2022/04/07 06:59:09;;;;;;;9.40;3.08;;;;;;;7.78;100.00;98171.38;5343805;27;20037;-68
2022/04/07 07:01:41;;;;;;;9.77;3.40;;;;;;;7.83;100.00;98160.28;5342578;27;20065;-68
2022/04/07 07:04:12;;;;;;;7.40;3.60;;;;;;;7.80;100.00;98142.03;5347440;27;20041;-68
2022/04/07 07:06:43;;;;;;;14.07;6.78;;;;;;;7.80;100.00;98140.19;5344826;27;20110;-68
2022/04/07 07:09:15;;;;;;;9.50;2.92;;;;;;;7.83;100.00;98128.44;5344815;27;20544;-68
2022/04/07 07:11:46;;;;;;;11.77;3.80;;;;;;;7.79;100.00;98132.41;5349055;27;20061;-69
2022/04/07 07:14:17;;;;;;;9.02;3.00;;;;;;;7.74;100.00;98110.84;5345246;27;20050;-69
2022/04/07 07:16:49;;;;;;;7.97;3.05;;;;;;;7.78;100.00;98097.06;5325601;27;20035;-68
2022/04/07 07:19:26;;;;;;;18.60;7.20;;;;;;;7.80;100.00;98089.75;5345542;27;20586;-68
2022/04/07 07:21:57;;;;;;;9.77;4.00;;;;;;;7.82;100.00;98089.59;5347644;27;20032;-68
2022/04/07 07:24:28;;;;;;;12.23;4.20;;;;;;;7.85;100.00;98076.00;5346905;27;20035;-68
2022/04/07 07:27:00;;;;;;;10.30;3.60;;;;;;;7.85;100.00;98073.34;5347324;27;20514;-67
2022/04/07 07:29:31;;;;;;;9.73;3.20;;;;;;;7.87;100.00;98063.38;5345774;27;20461;-68
2022/04/07 07:32:02;;;;;;;12.65;5.50;;;;;;;7.88;100.00;98040.31;5345899;27;20033;-68
2022/04/07 07:34:34;;;;;;;9.27;2.83;;;;;;;7.95;100.00;98028.03;5344160;27;20027;-68
2022/04/07 07:37:05;;;;;;;7.10;3.33;;;;;;;8.01;100.00;98030.81;5347630;27;20422;-68
2022/04/07 07:39:36;;;;;;;10.57;3.30;;;;;;;8.07;100.00;98031.13;5343181;27;20106;-68
2022/04/07 07:42:07;;;;;;;8.30;3.35;;;;;;;8.04;100.00;98013.72;5330580;27;20387;-68
2022/04/07 07:44:39;;;;;;;9.93;3.50;;;;;;;8.07;100.00;98037.28;5347217;27;20033;-68
2022/04/07 07:47:10;;;;;;;8.98;3.47;;;;;;;8.08;100.00;98100.03;5345419;27;20016;-68
2022/04/07 07:49:41;;;;;;;15.02;1.88;;;;;;;7.49;100.00;98229.41;5346485;27;20082;-71
2022/04/07 07:52:13;;;;;;;4.32;0.60;;;;;;;6.81;100.00;98233.81;5348166;27;20027;-69
2022/04/07 07:54:45;;;;;;;5.50;0.70;;;;;;;6.17;100.00;98236.69;5327147;27;20207;-69
2022/04/07 07:57:18;;;;;;;3.95;0.63;;;;;;;5.90;100.00;98229.66;5345165;27;20477;-69
2022/04/07 07:59:51;;;;;;;4.18;0.70;;;;;;;5.81;100.00;98212.03;5347501;27;20031;-68
2022/04/07 08:02:22;;;;;;;6.28;0.93;;;;;;;5.73;100.00;98207.50;5342277;27;20035;-68
2022/04/07 08:04:53;;;;;;;6.57;1.20;;;;;;;5.72;100.00;98202.41;5346771;27;20035;-68
2022/04/07 08:07:24;;;;;;;6.32;1.10;;;;;;;5.73;100.00;98214.63;5328124;27;20128;-68
2022/04/07 08:09:59;;;;;;;7.10;1.67;;;;;;;5.74;100.00;98208.38;5345027;27;20084;-68
2022/04/07 08:12:30;;;;;;;8.27;1.30;;;;;;;5.75;100.00;98197.59;5350306;27;20030;-68
2022/04/07 08:15:02;;;;;;;5.45;1.10;;;;;;;5.72;100.00;98189.16;5343686;27;20051;-68
2022/04/07 08:17:34;;;;;;;4.60;1.20;;;;;;;5.76;100.00;98182.59;5343879;27;20080;-67
2022/04/07 08:20:09;;;;;;;4.80;1.35;;;;;;;5.86;100.00;98185.97;5348385;27;20052;-68
2022/04/07 08:22:40;;;;;;;6.78;1.40;;;;;;;6.00;100.00;98182.81;5345594;27;20023;-68
2022/04/07 08:25:12;;;;;;;6.00;1.80;;;;;;;6.08;100.00;98182.88;5348687;27;20026;-68
2022/04/07 08:27:45;;;;;;;9.55;1.38;;;;;;;6.28;100.00;98183.47;5346452;27;20031;-67
2022/04/07 08:30:16;;;;;;;4.50;1.20;;;;;;;6.39;100.00;98178.94;5344747;27;20034;-67
2022/04/07 08:32:47;;;;;;;5.75;1.65;;;;;;;6.39;100.00;98173.63;5346777;27;20650;-67
2022/04/07 08:35:19;;;;;;;6.28;1.40;;;;;;;6.58;100.00;98178.69;5343943;27;20031;-67
2022/04/07 08:37:50;;;;;;;9.52;1.80;;;;;;;6.82;100.00;98183.28;5342770;27;20507;-67
2022/04/07 08:40:21;;;;;;;6.75;1.58;;;;;;;6.80;100.00;98189.72;5340982;27;21130;-67
2022/04/07 08:42:53;;;;;;;6.63;1.63;;;;;;;6.92;100.00;98171.72;5343885;27;20031;-67
2022/04/07 08:45:25;;;;;;;6.18;1.80;;;;;;;7.00;100.00;98175.25;5344745;27;20497;-67
2022/04/07 08:47:57;;;;;;;7.20;1.80;;;;;;;7.07;100.00;98164.81;5348593;27;20034;-67
2022/04/07 08:50:33;;;;;;;6.20;2.15;;;;;;;7.20;100.00;98159.06;5346776;27;20542;-67
2022/04/07 08:53:05;;;;;;;9.90;2.70;;;;;;;7.29;100.00;98159.88;5349577;27;20780;-67
2022/04/07 08:55:37;;;;;;;8.43;2.80;;;;;;;7.23;100.00;98164.88;5347041;27;20114;-67
2022/04/07 08:58:10;;;;;;;10.07;3.10;;;;;;;7.60;100.00;98179.50;5352528;27;20025;-67
2022/04/07 09:00:41;;;;;;;8.68;3.50;;;;;;;7.74;100.00;98177.19;5349410;27;20072;-67
2022/04/07 09:03:13;;;;;;;10.10;3.80;;;;;;;7.83;100.00;98165.59;5348901;27;20380;-67
2022/04/07 09:05:53;;;;;;;10.13;4.38;;;;;;;8.13;100.00;98171.19;5350786;27;20030;-67
2022/04/07 09:08:33;;;;;;;10.27;4.60;;;;;;;8.14;100.00;98172.88;5326426;27;20537;-67
2022/04/07 09:11:07;;;;;;;8.35;3.88;;;;;;;8.13;100.00;98176.50;5346904;27;20475;-67
2022/04/07 09:13:41;;;;;;;9.77;3.38;;;;;;;8.07;100.00;98177.19;5348268;27;20357;-67
2022/04/07 09:16:15;;;;;;;8.68;3.03;;;;;;;8.04;100.00;98168.56;5349886;27;20528;-67
2022/04/07 09:18:49;;;;;;;5.72;3.10;;;;;;;8.05;100.00;98174.69;5348635;27;20096;-66
2022/04/07 09:21:26;;;;;;;10.10;4.05;;;;;;;8.21;100.00;98180.00;5351042;27;20488;-66
2022/04/07 09:23:58;;;;;;;8.00;4.20;;;;;;;8.41;100.00;98175.16;5346626;27;20038;-67
2022/04/07 09:26:30;;;;;;;8.13;4.57;;;;;;;8.44;100.00;98174.03;5350033;27;20026;-67
2022/04/07 09:29:10;;;;;;;8.23;5.28;;;;;;;8.52;100.00;98176.66;5351089;27;20027;-67
2022/04/07 09:31:53;;;;;;;9.00;5.45;;;;;;;8.61;100.00;98177.44;5348203;27;20061;-66
2022/04/07 09:34:32;;;;;;;10.30;6.55;;;;;;;8.83;100.00;98191.84;5347646;27;20030;-67
2022/04/07 09:37:08;;;;;;;13.43;8.55;;;;;;;8.95;100.00;98195.78;5349882;27;20395;-67
2022/04/07 09:39:44;;;;;;;13.32;8.30;;;;;;;9.14;100.00;98197.19;5346726;27;20023;-67
2022/04/07 09:42:25;;;;;;;9.48;6.20;;;;;;;9.06;100.00;98196.41;5348385;27;20031;-66
2022/04/07 09:44:59;;;;;;;13.73;5.85;;;;;;;9.02;100.00;98186.09;5331963;27;20138;-66
2022/04/07 09:47:37;;;;;;;7.93;3.17;;;;;;;8.86;100.00;98195.97;5350051;27;20039;-66
2022/04/07 09:50:29;;;;;;;7.13;2.92;;;;;;;8.62;100.00;98177.28;5332723;27;20448;-66
2022/04/07 09:53:03;;;;;;;6.50;3.08;;;;;;;8.46;100.00;98190.63;5348446;27;20034;-67
2022/04/07 09:55:41;;;;;;;7.80;2.63;;;;;;;8.36;100.00;98181.97;5350141;27;20037;-67
2022/04/07 09:58:14;;;;;;;6.00;2.58;;;;;;;8.30;100.00;98194.09;5345767;27;20027;-67
2022/04/07 10:00:46;;;;;;;7.57;2.20;;;;;;;8.07;100.00;98196.59;5346806;27;20030;-67
2022/04/07 10:03:17;;;;;;;4.80;2.17;;;;;;;7.91;100.00;98183.34;5348359;27;20027;-67
2022/04/07 10:05:50;;;;;;;9.32;3.10;;;;;;;7.81;100.00;98196.78;5348147;27;20031;-67
2022/04/07 10:08:22;;;;;;;6.20;3.50;;;;;;;7.89;100.00;98196.78;5348864;27;20379;-67
2022/04/07 10:10:54;;;;;;;7.45;3.03;;;;;;;7.81;100.00;98210.88;5349269;27;20031;-67
2022/04/07 10:13:26;;;;;;;8.85;3.38;;;;;;;7.72;100.00;98200.41;5347825;27;20148;-67
2022/04/07 10:15:58;;;;;;;7.15;3.50;;;;;;;7.74;100.00;98201.91;5343090;27;20031;-66
2022/04/07 10:19:01;;;;;;;6.65;1.92;;;;;;;7.77;100.00;98208.72;5347649;27;20049;-67
2022/04/07 10:21:57;;;;;;;8.43;1.90;;;;;;;8.02;100.00;98213.03;5345608;27;20082;-66
2022/04/07 10:24:35;;;;;;;5.30;1.50;;;;;;;8.31;100.00;98202.91;5343106;27;20122;-66
2022/04/07 10:27:08;;;;;;;6.55;1.58;;;;;;;8.40;100.00;98213.34;5346279;27;20034;-66
2022/04/07 10:29:40;;;;;;;5.28;1.60;;;;;;;8.67;100.00;98203.38;5347820;27;20030;-66
2022/04/07 10:32:11;;;;;;;10.02;1.80;;;;;;;8.86;100.00;98214.59;5347985;27;20035;-66
2022/04/07 10:35:03;;;;;;;5.03;1.58;;;;;;;9.18;100.00;98213.63;5346599;27;20088;-66
2022/04/07 10:37:45;;;;;;;4.72;1.52;;;;;;;9.31;100.00;98219.22;5347247;27;20039;-66
2022/04/07 10:40:31;;;;;;;7.88;1.70;;;;;;;9.49;100.00;98239.41;5347489;27;20034;-66
2022/04/07 10:43:18;;;;;;;10.75;1.70;;;;;;;9.61;100.00;98241.53;5324814;27;20038;-66
2022/04/07 10:46:18;;;;;;;8.25;1.42;;;;;;;9.48;100.00;98227.13;5344354;27;20076;-66
2022/04/07 10:48:58;;;;;;;7.45;1.27;;;;;;;9.45;94.68;98267.38;5346238;27;20038;-67
2022/04/07 10:51:51;;;;;;;7.95;1.52;;;;;;;9.19;94.70;98261.34;5345387;27;20035;-67
2022/04/07 10:54:30;;;;;;;8.23;1.88;;;;;;;9.14;93.48;98262.88;5348310;27;20488;-67
2022/04/07 10:57:01;;;;;;;10.32;1.83;;;;;;;9.25;94.03;98254.50;5347440;27;20121;-66
2022/04/07 10:59:34;;;;;;;12.98;1.98;;;;;;;9.60;92.04;98255.81;5347184;27;20039;-67
2022/04/07 11:02:09;;;;;;;12.07;1.70;;;;;;;9.74;93.80;98277.38;5346256;27;20494;-67
2022/04/07 11:04:42;;;;;;;11.75;1.60;;;;;;;9.69;85.36;98275.25;5349620;27;20092;-66
2022/04/07 11:07:14;;;;;;;6.82;1.40;;;;;;;9.58;87.00;98283.63;5345857;27;20027;-67
2022/04/07 11:09:48;;;;;;;6.32;1.33;;;;;;;9.60;86.04;98278.97;5347361;27;20038;-66
2022/04/07 11:12:22;;;;;;;12.33;1.60;;;;;;;9.63;84.97;98302.59;5348104;27;20455;-66
2022/04/07 11:15:32;;;;;;;7.95;2.40;;;;;;;9.59;88.75;98302.09;5349146;27;20299;-66
2022/04/07 11:18:39;;;;;;;14.85;2.38;;;;;;;9.82;85.75;98293.34;5348357;27;20027;-67
2022/04/07 11:21:11;;;;;;;8.82;1.70;;;;;;;10.04;85.78;98313.00;5349482;27;20476;-66
2022/04/07 11:23:48;;;;;;;7.53;1.60;;;;;;;10.19;79.13;98305.88;5348509;27;20075;-66
2022/04/07 11:26:27;;;;;;;11.98;1.73;;;;;;;10.26;79.92;98318.50;5348865;27;20396;-67
2022/04/07 11:29:11;;;;;;;9.35;1.85;;;;;;;10.37;78.21;98316.31;5343708;27;20027;-66
2022/04/07 11:31:50;;;;;;;12.25;1.85;;;;;;;10.31;77.65;98330.31;5345063;27;20026;-66
2022/04/07 11:34:39;;;;;;;8.55;1.85;;;;;;;10.19;75.69;98348.53;5349551;27;20030;-66
2022/04/07 11:37:14;;;;;;;7.93;1.55;;;;;;;10.13;77.39;98348.41;5347725;27;20030;-66
2022/04/07 11:39:48;;;;;;;8.05;1.65;;;;;;;9.97;76.85;98350.16;5347036;27;20062;-66
2022/04/07 11:42:21;;;;;;;11.18;1.80;;;;;;;9.82;78.70;98362.56;5343820;27;20604;-66
2022/04/07 11:45:00;;;;;;;10.90;1.83;;;;;;;9.70;77.65;98370.09;5344974;27;20058;-66
2022/04/07 11:47:34;;;;;;;11.32;2.00;;;;;;;9.72;82.08;98348.63;5348374;27;20850;-67
2022/04/07 11:50:07;;;;;;;11.02;2.05;;;;;;;9.99;79.77;98361.47;5348093;27;21097;-66
2022/04/07 11:52:39;;;;;;;10.43;1.47;;;;;;;10.15;78.06;98352.56;5345056;27;20102;-66
2022/04/07 11:55:10;;;;;;;9.55;1.63;;;;;;;10.36;75.60;98356.47;5325774;27;20453;-66
2022/04/07 11:57:41;;;;;;;11.70;2.10;;;;;;;10.51;75.70;98367.19;5342805;27;20035;-66
2022/04/07 12:00:14;;;;;;;11.70;2.10;;;;;;;10.62;74.24;98377.41;5344795;27;20331;-66